Time;durP1;ratioP1;P1;durP2;ratioP2;P2;SDS_P1;SDS_P2;PMS_P1;PMS_P2;Temp;Humidity;BMP_temperature;BMP_pressure;BME280_temperature;BME280_humidity;BME280_pressure;Samples;Min_cycle;Max_cycle;Signal;HPM_P1;HPM_P2
2022/07/06 00:01:22;;;;;;;0.10;0.10;;;;;;;22.26;52.84;102141.78;5150435;27;20792;-39
2022/07/06 00:03:48;;;;;;;0.10;0.10;;;;;;;22.26;52.95;102141.78;5149906;27;20148;-40
2022/07/06 00:06:20;;;;;;;0.10;0.10;;;;;;;22.25;53.06;102137.34;5137248;27;20039;-39
2022/07/06 00:08:46;;;;;;;0.10;0.10;;;;;;;22.28;52.87;102144.31;5150949;27;20042;-40
2022/07/06 00:11:12;;;;;;;0.10;0.10;;;;;;;22.27;52.85;102140.69;5151112;27;20055;-39
2022/07/06 00:13:37;;;;;;;0.10;0.10;;;;;;;22.27;52.94;102131.53;5140968;27;20398;-40
2022/07/06 00:16:03;;;;;;;0.10;0.10;;;;;;;22.27;52.77;102137.06;5150062;27;20123;-40
2022/07/06 00:18:29;;;;;;;0.10;0.10;;;;;;;22.26;52.87;102130.69;5149557;27;20122;-41
2022/07/06 00:20:55;;;;;;;0.10;0.10;;;;;;;22.26;52.91;102139.00;5152768;27;20043;-38
2022/07/06 00:23:21;;;;;;;0.10;0.10;;;;;;;22.26;52.94;102138.19;5151563;27;20081;-39
2022/07/06 00:25:48;;;;;;;0.10;0.10;;;;;;;22.25;52.91;102130.97;5149091;27;20095;-39
2022/07/06 00:28:14;;;;;;;0.10;0.10;;;;;;;22.27;52.95;102131.53;5150395;27;20074;-39
2022/07/06 00:30:39;;;;;;;0.10;0.10;;;;;;;22.26;52.90;102136.25;5149898;27;20077;-40
2022/07/06 00:33:05;;;;;;;0.10;0.10;;;;;;;22.26;52.90;102133.47;5151222;27;20457;-39
2022/07/06 00:35:31;;;;;;;0.10;0.10;;;;;;;22.26;52.83;102133.47;5150777;27;20092;-39
2022/07/06 00:37:56;;;;;;;0.10;0.10;;;;;;;22.26;52.94;102129.84;5150411;27;20461;-39
2022/07/06 00:40:22;;;;;;;0.10;0.10;;;;;;;22.27;52.80;102137.06;5150598;27;20370;-39
2022/07/06 00:42:48;;;;;;;0.10;0.10;;;;;;;22.27;52.86;102124.03;5150092;27;20099;-39
2022/07/06 00:45:16;;;;;;;0.10;0.10;;;;;;;22.27;52.93;102137.06;5150896;27;20084;-40
2022/07/06 00:47:42;;;;;;;0.10;0.10;;;;;;;22.28;52.92;102136.00;5147119;27;20074;-39
2022/07/06 00:50:19;;;;;;;0.15;0.15;;;;;;;22.27;53.04;102137.91;5149735;27;20124;-39
2022/07/06 00:52:48;;;;;;;0.10;0.10;;;;;;;22.27;52.87;102137.91;5150467;27;20366;-39
2022/07/06 00:55:15;;;;;;;0.10;0.10;;;;;;;22.26;52.82;102138.19;5140235;27;20078;-39
2022/07/06 00:57:41;;;;;;;0.10;0.10;;;;;;;22.25;52.87;102145.69;5149964;27;20047;-39
2022/07/06 01:00:09;;;;;;;0.10;0.10;;;;;;;22.25;52.94;102137.34;5150725;27;20043;-38
2022/07/06 01:02:35;;;;;;;0.10;0.10;;;;;;;22.27;52.91;102139.84;5149667;27;20481;-37
2022/07/06 01:05:03;;;;;;;0.10;0.10;;;;;;;22.25;52.92;102140.13;5122044;27;20098;-39
2022/07/06 01:07:29;;;;;;;0.10;0.10;;;;;;;22.27;52.89;102142.63;5133168;27;20082;-39
2022/07/06 01:09:55;;;;;;;0.10;0.10;;;;;;;22.26;52.83;102144.56;5149157;27;20038;-39
2022/07/06 01:12:20;;;;;;;0.17;0.17;;;;;;;22.26;52.84;102143.72;5148492;27;20054;-39
2022/07/06 01:14:47;;;;;;;0.10;0.10;;;;;;;22.25;52.93;102144.84;5149034;27;20138;-38
2022/07/06 01:17:13;;;;;;;0.10;0.10;;;;;;;22.25;52.83;102145.69;5145898;27;20074;-40
2022/07/06 01:19:39;;;;;;;0.10;0.10;;;;;;;22.26;52.83;102144.56;5147565;27;20737;-39
2022/07/06 01:22:04;;;;;;;0.10;0.10;;;;;;;22.26;52.92;102143.72;5150213;27;20034;-41
2022/07/06 01:24:30;;;;;;;0.20;0.20;;;;;;;22.27;52.77;102143.44;5150791;27;20384;-39
2022/07/06 01:26:57;;;;;;;0.10;0.10;;;;;;;22.26;52.92;102141.78;5136030;27;20074;-39
2022/07/06 01:29:22;;;;;;;0.10;0.10;;;;;;;22.26;52.94;102146.50;5150426;27;20066;-40
2022/07/06 01:31:49;;;;;;;0.10;0.10;;;;;;;22.26;52.88;102147.34;5150652;27;20047;-38
2022/07/06 01:34:17;;;;;;;0.10;0.10;;;;;;;22.27;52.94;102143.44;5150752;27;20045;-39
2022/07/06 01:36:43;;;;;;;0.10;0.10;;;;;;;22.27;52.75;102148.16;5134682;27;20081;-39
2022/07/06 01:39:09;;;;;;;0.10;0.10;;;;;;;22.25;52.85;102142.06;5149909;27;20078;-39
2022/07/06 01:41:35;;;;;;;0.10;0.10;;;;;;;22.25;52.88;102148.44;5138423;27;20104;-41
2022/07/06 01:44:01;;;;;;;0.10;0.10;;;;;;;22.26;52.83;102143.72;5137339;27;20495;-40
2022/07/06 01:46:27;;;;;;;0.10;0.10;;;;;;;22.25;52.84;102140.13;5144766;27;20101;-40
2022/07/06 01:48:52;;;;;;;0.10;0.10;;;;;;;22.26;52.75;102140.97;5151287;27;20465;-41
2022/07/06 01:51:18;;;;;;;0.10;0.10;;;;;;;22.27;52.76;102135.13;5149370;27;20038;-40
2022/07/06 01:53:44;;;;;;;0.10;0.10;;;;;;;22.25;52.83;102133.75;5149406;27;20805;-39
2022/07/06 01:56:10;;;;;;;0.10;0.10;;;;;;;22.26;52.78;102140.97;5137337;27;20043;-39
2022/07/06 01:58:36;;;;;;;0.10;0.10;;;;;;;22.24;52.67;102130.16;5133892;27;20082;-39
2022/07/06 02:01:08;;;;;;;0.10;0.10;;;;;;;22.26;52.77;102135.41;5148380;27;20047;-40
2022/07/06 02:03:33;;;;;;;0.10;0.10;;;;;;;22.26;52.88;102135.41;5149027;27;20098;-39
2022/07/06 02:06:00;;;;;;;0.10;0.10;;;;;;;22.24;52.85;102130.16;5149348;27;20047;-38
2022/07/06 02:08:25;;;;;;;0.10;0.10;;;;;;;22.25;52.81;102134.56;5140381;27;20082;-39
2022/07/06 02:10:52;;;;;;;0.10;0.10;;;;;;;22.24;52.94;102138.47;5149599;27;20043;-40
2022/07/06 02:13:17;;;;;;;0.10;0.10;;;;;;;22.25;52.77;102142.91;5148908;27;20099;-39
2022/07/06 02:15:43;;;;;;;0.10;0.10;;;;;;;22.25;52.79;102140.13;5149862;27;20042;-40
2022/07/06 02:18:09;;;;;;;0.10;0.10;;;;;;;22.25;52.84;102130.97;5147290;27;20038;-39
2022/07/06 02:20:34;;;;;;;0.10;0.10;;;;;;;22.26;52.81;102130.69;5149849;27;20047;-39
2022/07/06 02:23:00;;;;;;;0.10;0.10;;;;;;;22.25;52.61;102140.13;5153900;27;20056;-40
2022/07/06 02:25:26;;;;;;;0.10;0.10;;;;;;;22.24;52.96;102138.47;5153626;27;20465;-39
2022/07/06 02:27:51;;;;;;;0.10;0.10;;;;;;;22.26;52.90;102136.25;5152203;27;20061;-40
2022/07/06 02:30:17;;;;;;;0.10;0.10;;;;;;;22.27;52.83;102137.06;5152093;27;20042;-39
2022/07/06 02:32:43;;;;;;;0.10;0.10;;;;;;;22.27;52.80;102134.28;5153523;27;20077;-40
2022/07/06 02:35:09;;;;;;;0.10;0.10;;;;;;;22.26;52.75;102129.84;5153344;27;20051;-40
2022/07/06 02:37:34;;;;;;;0.10;0.10;;;;;;;22.25;52.83;102129.03;5152632;27;20350;-39
2022/07/06 02:40:01;;;;;;;0.10;0.10;;;;;;;22.25;52.82;102123.47;5152985;27;20362;-39
2022/07/06 02:42:26;;;;;;;0.10;0.10;;;;;;;22.25;52.79;102122.66;5152549;27;20077;-38
2022/07/06 02:44:53;;;;;;;0.10;0.10;;;;;;;22.26;52.75;102118.75;5152730;27;20050;-37
2022/07/06 02:47:19;;;;;;;0.10;0.10;;;;;;;22.25;52.80;102125.44;5151132;27;20074;-40
2022/07/06 02:49:44;;;;;;;0.10;0.10;;;;;;;22.25;52.75;102125.44;5152296;27;20039;-41
2022/07/06 02:52:10;;;;;;;0.10;0.10;;;;;;;22.27;52.77;102128.75;5140214;27;20059;-39
2022/07/06 02:54:36;;;;;;;0.10;0.10;;;;;;;22.26;52.86;102132.63;5153335;27;20039;-38
2022/07/06 02:57:01;;;;;;;0.10;0.10;;;;;;;22.27;52.72;102139.84;5150907;27;20042;-40
2022/07/06 02:59:27;;;;;;;0.10;0.10;;;;;;;22.27;52.72;102139.84;5153752;27;20047;-38
2022/07/06 03:01:53;;;;;;;0.10;0.10;;;;;;;22.27;52.80;102145.41;5152178;27;20049;-39
2022/07/06 03:04:18;;;;;;;0.20;0.20;;;;;;;22.25;52.72;102145.69;5139354;27;20058;-39
2022/07/06 03:06:44;;;;;;;0.10;0.10;;;;;;;22.25;52.76;102144.84;5152500;27;20042;-39
2022/07/06 03:09:10;;;;;;;0.10;0.10;;;;;;;22.26;52.67;102149.28;5152628;27;20039;-39
2022/07/06 03:11:36;;;;;;;0.10;0.10;;;;;;;22.25;52.69;102151.22;5153280;27;20039;-39
2022/07/06 03:14:03;;;;;;;0.10;0.10;;;;;;;22.24;52.68;102148.75;5150872;27;20058;-38
2022/07/06 03:16:29;;;;;;;0.10;0.10;;;;;;;22.24;52.69;102155.13;5135152;27;20089;-39
2022/07/06 03:18:54;;;;;;;0.10;0.10;;;;;;;22.25;52.78;102151.22;5151330;27;20043;-39
2022/07/06 03:21:20;;;;;;;0.10;0.10;;;;;;;22.25;52.70;102154.00;5151500;27;20125;-39
2022/07/06 03:23:45;;;;;;;0.10;0.10;;;;;;;22.24;52.82;102155.13;5152812;27;20477;-39
2022/07/06 03:26:11;;;;;;;0.10;0.10;;;;;;;22.25;52.61;102148.44;5152549;27;20392;-43
2022/07/06 03:28:37;;;;;;;0.10;0.10;;;;;;;22.24;52.62;102149.56;5151075;27;20088;-39
2022/07/06 03:31:02;;;;;;;0.10;0.10;;;;;;;22.26;52.63;102144.56;5142809;27;20038;-40
2022/07/06 03:33:28;;;;;;;0.10;0.10;;;;;;;22.25;52.64;102147.63;5151029;27;20092;-39
2022/07/06 03:35:54;;;;;;;0.10;0.10;;;;;;;22.25;52.77;102156.78;5151536;27;20087;-39
2022/07/06 03:38:20;;;;;;;0.10;0.10;;;;;;;22.25;52.83;102150.41;5150587;27;20475;-38
2022/07/06 03:40:46;;;;;;;0.10;0.10;;;;;;;22.25;52.70;102150.41;5152235;27;20469;-41
2022/07/06 03:43:11;;;;;;;0.10;0.10;;;;;;;22.25;52.64;102155.94;5148594;27;20125;-39
2022/07/06 03:45:37;;;;;;;0.10;0.10;;;;;;;22.25;52.74;102156.78;5152043;27;20043;-39
2022/07/06 03:48:03;;;;;;;0.10;0.10;;;;;;;22.26;52.69;102152.06;5146494;27;20049;-40
2022/07/06 03:50:29;;;;;;;0.10;0.10;;;;;;;22.25;52.75;102155.94;5152175;27;20130;-39
2022/07/06 03:52:54;;;;;;;0.10;0.10;;;;;;;22.24;52.69;102155.13;5151195;27;20050;-39
2022/07/06 03:55:20;;;;;;;0.10;0.10;;;;;;;22.23;52.73;102153.41;5150587;27;20375;-37
2022/07/06 03:57:45;;;;;;;0.10;0.10;;;;;;;22.25;52.35;102150.41;5152063;27;20039;-39
2022/07/06 04:00:12;;;;;;;0.10;0.10;;;;;;;22.25;52.76;102155.94;5151783;27;20042;-39
2022/07/06 04:02:37;;;;;;;0.10;0.10;;;;;;;22.23;52.71;102156.19;5151218;27;20073;-40
2022/07/06 04:05:04;;;;;;;0.10;0.10;;;;;;;22.23;52.65;102158.97;5151691;27;20038;-39
2022/07/06 04:07:30;;;;;;;0.10;0.10;;;;;;;22.24;52.58;102152.34;5150489;27;20085;-39
2022/07/06 04:09:55;;;;;;;0.10;0.10;;;;;;;22.25;52.61;102155.94;5150004;27;20125;-39
2022/07/06 04:12:21;;;;;;;0.10;0.10;;;;;;;22.24;52.68;102155.13;5144652;27;20039;-40
2022/07/06 04:14:47;;;;;;;0.10;0.10;;;;;;;22.24;52.66;102154.28;5151048;27;20039;-39
2022/07/06 04:19:58;;;;;;;0.10;0.10;;;;;;;22.24;52.73;102159.84;5141496;27;20038;-39
2022/07/06 04:22:24;;;;;;;0.10;0.10;;;;;;;22.25;52.61;102153.16;5139320;27;20072;-39
2022/07/06 04:24:49;;;;;;;0.10;0.10;;;;;;;22.25;52.70;102161.50;5151708;27;20128;-41
2022/07/06 04:27:15;;;;;;;0.20;0.20;;;;;;;22.25;52.65;102159.56;5150410;27;20039;-39
2022/07/06 04:29:41;;;;;;;0.10;0.10;;;;;;;22.26;52.63;102165.94;5150962;27;20050;-39
2022/07/06 04:32:07;;;;;;;0.10;0.10;;;;;;;22.24;52.68;102160.66;5151043;27;20049;-39
2022/07/06 04:34:33;;;;;;;0.10;0.10;;;;;;;22.25;52.70;102169.81;5149688;27;20050;-41
2022/07/06 04:36:58;;;;;;;0.10;0.10;;;;;;;22.25;52.63;102167.06;5151146;27;20179;-39
2022/07/06 04:39:24;;;;;;;0.10;0.10;;;;;;;22.26;52.66;102168.72;5151672;27;20142;-38
2022/07/06 04:41:49;;;;;;;0.10;0.10;;;;;;;22.26;52.59;102163.16;5147917;27;20039;-39
2022/07/06 04:44:15;;;;;;;0.10;0.10;;;;;;;22.25;52.65;102164.28;5150160;27;20494;-39
2022/07/06 04:46:41;;;;;;;0.10;0.10;;;;;;;22.24;52.69;102157.91;5135202;27;20039;-39
2022/07/06 04:49:07;;;;;;;0.10;0.10;;;;;;;22.25;52.58;102153.16;5151958;27;20080;-39
2022/07/06 04:51:32;;;;;;;0.10;0.10;;;;;;;22.25;52.73;102155.94;5152115;27;20055;-39
2022/07/06 04:53:58;;;;;;;0.10;0.10;;;;;;;22.24;52.63;102155.13;5149597;27;20058;-39
2022/07/06 04:56:24;;;;;;;0.10;0.10;;;;;;;22.24;52.57;102160.66;5149006;27;20046;-39
2022/07/06 04:58:50;;;;;;;0.10;0.10;;;;;;;22.24;52.56;102162.59;5151561;27;20133;-41
2022/07/06 05:01:15;;;;;;;0.10;0.10;;;;;;;22.25;52.62;102167.06;5147603;27;20049;-39
2022/07/06 05:03:41;;;;;;;0.10;0.10;;;;;;;22.24;52.64;102173.72;5140603;27;20047;-41
2022/07/06 05:06:07;;;;;;;0.10;0.10;;;;;;;22.26;52.58;102174.25;5151710;27;20099;-39
2022/07/06 05:08:33;;;;;;;0.10;0.10;;;;;;;22.23;52.60;102167.31;5149170;27;20073;-37
2022/07/06 05:10:59;;;;;;;0.10;0.10;;;;;;;22.22;52.58;102162.03;5149349;27;20129;-39
2022/07/06 05:13:25;;;;;;;0.10;0.10;;;;;;;22.23;52.66;102164.53;5138133;27;20154;-39
2022/07/06 05:15:50;;;;;;;0.10;0.10;;;;;;;22.24;52.64;102166.22;5150022;27;20473;-38
2022/07/06 05:18:16;;;;;;;0.20;0.20;;;;;;;22.24;52.59;102165.38;5148580;27;20038;-40
2022/07/06 05:20:42;;;;;;;0.10;0.10;;;;;;;22.24;52.59;102166.22;5150802;27;20045;-39
2022/07/06 05:23:08;;;;;;;0.10;0.10;;;;;;;22.24;52.48;102170.94;5150012;27;20043;-41
2022/07/06 05:25:34;;;;;;;0.10;0.10;;;;;;;22.23;52.63;102172.84;5140961;27;20042;-39
2022/07/06 05:27:59;;;;;;;0.10;0.10;;;;;;;22.24;52.47;102174.53;5135208;27;20042;-38
2022/07/06 05:30:26;;;;;;;0.10;0.10;;;;;;;22.25;52.54;102180.91;5136212;27;20050;-39
2022/07/06 05:32:51;;;;;;;0.10;0.10;;;;;;;22.25;52.56;102170.66;5127228;27;20066;-39
2022/07/06 05:35:17;;;;;;;0.10;0.10;;;;;;;22.24;52.58;102180.09;5151465;27;20043;-38
2022/07/06 05:38:03;;;;;;;0.10;0.10;;;;;;;22.23;52.66;102178.41;5136994;27;20095;-41
2022/07/06 05:40:29;;;;;;;0.10;0.10;;;;;;;22.25;52.38;102183.69;5150651;27;20441;-39
2022/07/06 05:42:54;;;;;;;0.10;0.10;;;;;;;22.23;52.52;102172.03;5147660;27;20039;-41
2022/07/06 05:45:22;;;;;;;0.10;0.10;;;;;;;22.24;52.59;102173.72;5149014;27;20492;-39
2022/07/06 05:50:33;;;;;;;0.10;0.10;;;;;;;22.23;52.51;102170.06;5136647;27;20043;-39
2022/07/06 05:53:02;;;;;;;0.10;0.10;;;;;;;22.25;52.82;102180.91;5150081;27;20043;-39
2022/07/06 05:55:38;;;;;;;0.10;0.10;;;;;;;22.24;52.88;102177.31;5150757;27;20488;-39
2022/07/06 05:58:03;;;;;;;0.10;0.10;;;;;;;22.24;52.59;102179.25;5152944;27;20042;-39
2022/07/06 06:00:29;;;;;;;0.10;0.10;;;;;;;22.24;52.60;102191.19;5152682;27;20038;-40
2022/07/06 06:02:55;;;;;;;0.10;0.10;;;;;;;22.25;52.46;102190.06;5137013;27;20035;-39
2022/07/06 06:05:21;;;;;;;0.10;0.10;;;;;;;22.25;52.41;102194.78;5141071;27;20046;-39
2022/07/06 06:07:51;;;;;;;0.10;0.10;;;;;;;22.25;52.55;102189.25;5151592;27;20042;-39
2022/07/06 06:10:17;;;;;;;0.10;0.10;;;;;;;22.23;52.71;102192.28;5153664;27;20449;-38
2022/07/06 06:12:43;;;;;;;0.10;0.10;;;;;;;22.24;52.67;102193.97;5139150;27;20050;-40
2022/07/06 06:15:09;;;;;;;0.10;0.10;;;;;;;22.22;52.51;102192.56;5139761;27;20162;-40
2022/07/06 06:17:36;;;;;;;0.10;0.10;;;;;;;22.23;52.73;102197.81;5154202;27;20046;-37
2022/07/06 06:20:03;;;;;;;0.10;0.10;;;;;;;22.24;52.52;102196.75;5125209;27;20051;-40
2022/07/06 06:22:29;;;;;;;0.10;0.10;;;;;;;22.23;52.69;102200.59;5152904;27;20093;-41
2022/07/06 06:24:55;;;;;;;0.10;0.10;;;;;;;22.23;52.65;102194.22;5153908;27;20046;-39
2022/07/06 06:27:20;;;;;;;0.10;0.10;;;;;;;22.23;52.57;102199.78;5137632;27;20045;-39
2022/07/06 06:29:46;;;;;;;0.10;0.10;;;;;;;22.24;52.52;102207.00;5152306;27;20049;-39
2022/07/06 06:32:12;;;;;;;0.10;0.10;;;;;;;22.24;52.57;102210.63;5151497;27;20102;-39
2022/07/06 06:34:39;;;;;;;0.10;0.10;;;;;;;22.23;52.48;102203.38;5152454;27;20035;-39
2022/07/06 06:37:04;;;;;;;0.10;0.10;;;;;;;22.21;52.55;102200.06;5150343;27;20077;-39
2022/07/06 06:39:30;;;;;;;0.10;0.10;;;;;;;22.22;52.57;102200.88;5153071;27;20039;-39
2022/07/06 06:41:56;;;;;;;0.10;0.10;;;;;;;22.23;52.55;102202.53;5145517;27;20046;-41
2022/07/06 06:44:23;;;;;;;0.10;0.10;;;;;;;22.23;52.51;102208.09;5134312;27;20476;-39
2022/07/06 06:46:49;;;;;;;0.10;0.10;;;;;;;22.24;52.49;102210.63;5149965;27;20469;-41
2022/07/06 06:49:15;;;;;;;0.10;0.10;;;;;;;22.24;52.46;102213.38;5153316;27;20412;-40
2022/07/06 06:51:41;;;;;;;0.10;0.10;;;;;;;22.23;52.48;102206.16;5153312;27;20042;-40
2022/07/06 06:54:07;;;;;;;0.10;0.10;;;;;;;22.24;52.52;102210.63;5151512;27;20047;-41
2022/07/06 06:56:33;;;;;;;0.10;0.10;;;;;;;22.24;52.74;102215.34;5153370;27;20553;-39
2022/07/06 06:58:58;;;;;;;0.20;0.20;;;;;;;22.23;52.53;102221.97;5151846;27;20466;-39
2022/07/06 07:01:43;;;;;;;0.10;0.10;;;;;;;22.24;52.60;102226.44;5151731;27;20035;-38
2022/07/06 07:04:08;;;;;;;0.17;0.17;;;;;;;22.23;52.61;102227.53;5151248;27;20061;-39
2022/07/06 07:06:34;;;;;;;0.10;0.10;;;;;;;22.21;52.54;102222.25;5139355;27;20050;-40
2022/07/06 07:09:00;;;;;;;0.10;0.10;;;;;;;22.23;52.43;102222.78;5151904;27;20047;-38
2022/07/06 07:11:26;;;;;;;0.10;0.10;;;;;;;22.24;52.51;102218.94;5152218;27;20050;-40
2022/07/06 07:13:51;;;;;;;0.10;0.10;;;;;;;22.21;52.55;102213.09;5152424;27;20051;-40
2022/07/06 07:16:17;;;;;;;0.15;0.15;;;;;;;22.22;52.62;102221.13;5151871;27;20039;-39
2022/07/06 07:18:43;;;;;;;0.10;0.10;;;;;;;22.24;52.51;102223.66;5151079;27;20034;-39
2022/07/06 07:21:08;;;;;;;0.10;0.10;;;;;;;22.24;52.49;102226.44;5152527;27;20369;-40
2022/07/06 07:23:34;;;;;;;0.10;0.10;;;;;;;22.25;52.55;102222.53;5151175;27;20039;-39
2022/07/06 07:26:00;;;;;;;0.10;0.10;;;;;;;22.23;52.47;102217.25;5151898;27;20549;-39
2022/07/06 07:28:25;;;;;;;0.10;0.10;;;;;;;22.23;52.61;102228.34;5152003;27;20039;-40
2022/07/06 07:30:52;;;;;;;0.10;0.10;;;;;;;22.23;52.58;102221.97;5150911;27;20048;-40
2022/07/06 07:33:18;;;;;;;0.10;0.10;;;;;;;22.22;52.52;102221.13;5152558;27;20045;-41
2022/07/06 07:35:44;;;;;;;0.10;0.10;;;;;;;22.24;52.43;102226.44;5135195;27;20042;-39
2022/07/06 07:38:10;;;;;;;0.10;0.10;;;;;;;22.24;52.50;102223.66;5136176;27;20113;-38
2022/07/06 07:40:35;;;;;;;0.10;0.10;;;;;;;22.23;52.47;102221.97;5152129;27;20074;-39
2022/07/06 07:43:01;;;;;;;0.10;0.10;;;;;;;22.22;52.37;102223.91;5150323;27;20043;-39
2022/07/06 07:45:27;;;;;;;0.10;0.10;;;;;;;22.23;52.41;102217.25;5151370;27;20043;-39
2022/07/06 07:47:52;;;;;;;0.10;0.10;;;;;;;22.24;52.40;102218.13;5147384;27;20499;-39
2022/07/06 07:50:18;;;;;;;0.20;0.20;;;;;;;22.24;52.47;102226.44;5150883;27;20049;-39
2022/07/06 07:52:44;;;;;;;0.10;0.10;;;;;;;22.23;52.51;102228.34;5152846;27;20126;-38
2022/07/06 07:55:10;;;;;;;0.10;0.10;;;;;;;22.23;52.28;102222.78;5150106;27;20047;-41
2022/07/06 07:57:55;;;;;;;0.10;0.10;;;;;;;22.23;52.52;102221.97;5124913;27;20553;-41
2022/07/06 08:00:21;;;;;;;0.10;0.10;;;;;;;22.24;52.49;102223.66;5151075;27;20038;-40
2022/07/06 08:02:54;;;;;;;0.10;0.10;;;;;;;22.22;52.57;102223.91;5151000;27;20053;-40
2022/07/06 08:05:20;;;;;;;0.10;0.10;;;;;;;22.24;52.40;102218.94;5147422;27;20494;-40
2022/07/06 08:07:45;;;;;;;0.10;0.10;;;;;;;22.23;52.40;102211.69;5144389;27;20054;-37
2022/07/06 08:10:11;;;;;;;0.10;0.10;;;;;;;22.24;52.43;102213.38;5150621;27;20046;-39
2022/07/06 08:12:37;;;;;;;0.10;0.10;;;;;;;22.24;52.31;102215.34;5151001;27;20110;-39
2022/07/06 08:15:10;;;;;;;0.10;0.10;;;;;;;22.23;52.44;102216.41;5151241;27;20055;-39
2022/07/06 08:17:36;;;;;;;0.10;0.10;;;;;;;22.22;52.43;102217.53;5149093;27;20035;-40
2022/07/06 08:20:02;;;;;;;0.10;0.10;;;;;;;22.23;52.38;102211.69;5150859;27;20049;-39
2022/07/06 08:22:29;;;;;;;0.10;0.10;;;;;;;22.24;52.22;102218.13;5151122;27;20050;-41
2022/07/06 08:24:55;;;;;;;0.10;0.10;;;;;;;22.23;52.46;102216.41;5152650;27;20441;-38
2022/07/06 08:27:21;;;;;;;0.10;0.10;;;;;;;22.24;52.41;102212.56;5150277;27;20085;-40
2022/07/06 08:29:46;;;;;;;0.10;0.10;;;;;;;22.24;52.47;102220.88;5150147;27;20047;-40
2022/07/06 08:32:12;;;;;;;0.10;0.10;;;;;;;22.23;52.39;102219.19;5149754;27;20083;-39
2022/07/06 08:34:55;;;;;;;0.10;0.10;;;;;;;22.23;52.52;102219.19;5152144;27;20358;-41
2022/07/06 08:37:21;;;;;;;0.10;0.10;;;;;;;22.22;52.54;102215.59;5148670;27;20049;-40
2022/07/06 08:39:46;;;;;;;0.10;0.10;;;;;;;22.24;52.39;102204.22;5149495;27;20035;-38
2022/07/06 08:42:12;;;;;;;0.10;0.10;;;;;;;22.23;52.51;102208.94;5150735;27;20050;-40
2022/07/06 08:44:38;;;;;;;0.10;0.10;;;;;;;22.22;52.42;102218.34;5140517;27;20055;-39
2022/07/06 08:47:05;;;;;;;0.10;0.10;;;;;;;22.23;52.28;102211.69;5146131;27;20046;-40
2022/07/06 08:49:31;;;;;;;0.10;0.10;;;;;;;22.23;52.27;102217.25;5151477;27;20057;-42
2022/07/06 08:51:57;;;;;;;0.10;0.10;;;;;;;22.23;52.39;102205.31;5151627;27;20533;-41
2022/07/06 08:54:22;;;;;;;0.10;0.10;;;;;;;22.23;52.46;102216.41;5147779;27;20046;-39
2022/07/06 08:56:49;;;;;;;0.10;0.10;;;;;;;22.22;52.60;102218.34;5150664;27;20043;-40
2022/07/06 08:59:15;;;;;;;0.10;0.10;;;;;;;22.23;52.38;102219.19;5150273;27;20168;-39
2022/07/06 09:01:41;;;;;;;0.10;0.10;;;;;;;22.22;52.43;102223.06;5140609;27;20077;-38
2022/07/06 09:04:08;;;;;;;0.10;0.10;;;;;;;22.21;52.41;102224.19;5150660;27;20085;-39
2022/07/06 09:06:35;;;;;;;0.10;0.10;;;;;;;22.22;52.35;102223.91;5150504;27;20476;-40
2022/07/06 09:09:05;;;;;;;0.10;0.10;;;;;;;22.24;52.25;102223.66;5136220;27;20503;-41
2022/07/06 09:11:31;;;;;;;0.10;0.10;;;;;;;22.22;52.35;102225.84;5132277;27;20095;-40
2022/07/06 09:13:56;;;;;;;0.10;0.10;;;;;;;22.22;52.34;102223.91;5149566;27;20039;-40
2022/07/06 09:16:28;;;;;;;0.10;0.10;;;;;;;22.24;52.39;102218.13;5150771;27;20465;-39
2022/07/06 09:19:05;;;;;;;0.10;0.10;;;;;;;22.23;52.43;102216.41;5136088;27;20066;-39
2022/07/06 09:21:32;;;;;;;0.10;0.10;;;;;;;22.23;52.44;102208.09;5150105;27;20070;-39
2022/07/06 09:24:00;;;;;;;0.10;0.10;;;;;;;22.24;52.14;102209.78;5134274;27;20046;-39
2022/07/06 09:26:26;;;;;;;0.10;0.10;;;;;;;22.22;52.41;102206.44;5150183;27;20099;-39
2022/07/06 09:28:52;;;;;;;0.10;0.10;;;;;;;22.21;52.42;102200.06;5150987;27;20070;-41
2022/07/06 09:31:18;;;;;;;0.10;0.10;;;;;;;22.22;52.35;102198.94;5151712;27;20449;-39
2022/07/06 09:34:06;;;;;;;0.10;0.10;;;;;;;22.23;52.57;102205.31;5153926;27;20050;-40
2022/07/06 09:36:40;;;;;;;;;;;;;;;22.23;52.34;102203.38;5129725;27;20107;-40
2022/07/06 09:39:26;;;;;;;0.10;0.10;;;;;;;22.23;52.64;102208.09;5152698;27;19972;-39
2022/07/06 09:41:57;;;;;;;0.10;0.10;;;;;;;22.22;52.33;102198.09;5143435;27;20045;-39
2022/07/06 09:44:29;;;;;;;0.10;0.10;;;;;;;22.22;52.40;102200.88;5151940;27;20425;-39
2022/07/06 09:46:56;;;;;;;0.10;0.10;;;;;;;22.21;52.32;102202.00;5141831;27;20081;-39
2022/07/06 09:49:22;;;;;;;0.10;0.10;;;;;;;22.22;52.43;102200.88;5122937;27;20077;-40
2022/07/06 09:51:50;;;;;;;0.10;0.10;;;;;;;22.23;52.28;102205.31;5154754;27;20069;-39
2022/07/06 09:54:16;;;;;;;0.10;0.10;;;;;;;22.22;52.32;102201.72;5142433;27;20082;-40
2022/07/06 09:56:47;;;;;;;0.10;0.10;;;;;;;22.22;52.40;102195.34;5153715;27;20152;-39
2022/07/06 09:59:15;;;;;;;0.10;0.10;;;;;;;22.22;52.43;102193.38;5127357;27;20066;-41
2022/07/06 10:01:41;;;;;;;0.10;0.10;;;;;;;22.21;52.34;102194.50;5154161;27;20495;-39
2022/07/06 10:04:08;;;;;;;0.10;0.10;;;;;;;22.22;52.33;102195.34;5138897;27;20197;-39
2022/07/06 10:06:35;;;;;;;0.10;0.10;;;;;;;22.22;52.50;102200.88;5121751;27;20069;-39
2022/07/06 10:09:01;;;;;;;0.10;0.10;;;;;;;22.22;52.42;102192.56;5152663;27;20092;-40
2022/07/06 10:11:28;;;;;;;0.10;0.10;;;;;;;22.22;52.36;102195.34;5148181;27;20066;-41
2022/07/06 10:13:56;;;;;;;0.10;0.10;;;;;;;22.21;52.43;102196.44;5152037;27;20476;-39
2022/07/06 10:16:24;;;;;;;0.10;0.10;;;;;;;22.22;52.31;102201.72;5152558;27;20043;-41
2022/07/06 10:18:53;;;;;;;0.10;0.10;;;;;;;22.21;52.63;102188.94;5137519;27;20062;-39
2022/07/06 10:21:21;;;;;;;0.10;0.10;;;;;;;22.20;52.71;102190.06;5138322;27;20077;-39
2022/07/06 10:23:47;;;;;;;0.10;0.10;;;;;;;22.19;52.62;102193.94;5142695;27;20092;-39
2022/07/06 10:26:14;;;;;;;0.10;0.10;;;;;;;22.21;52.52;102188.13;5153783;27;20050;-39
2022/07/06 10:28:41;;;;;;;0.10;0.10;;;;;;;22.22;52.25;102193.38;5137165;27;20074;-39
2022/07/06 10:31:08;;;;;;;0.10;0.10;;;;;;;22.22;52.29;102193.38;5137191;27;20078;-39
2022/07/06 10:33:34;;;;;;;0.10;0.10;;;;;;;22.23;52.26;102195.03;5151662;27;20091;-39
2022/07/06 10:36:00;;;;;;;0.10;0.10;;;;;;;22.22;52.27;102196.16;5152670;27;20071;-39
2022/07/06 10:38:34;;;;;;;0.10;0.10;;;;;;;22.21;52.42;102194.50;5152198;27;20096;-37
2022/07/06 10:41:06;;;;;;;0.10;0.10;;;;;;;22.21;52.37;102191.72;5136942;27;20050;-39
2022/07/06 10:43:33;;;;;;;0.10;0.10;;;;;;;22.21;52.51;102194.50;5151371;27;20535;-39
2022/07/06 10:45:59;;;;;;;0.10;0.10;;;;;;;22.22;52.27;102189.78;5138150;27;20825;-39
2022/07/06 10:48:34;;;;;;;0.10;0.10;;;;;;;22.22;52.37;102196.16;5136570;27;20145;-39
2022/07/06 10:51:01;;;;;;;0.10;0.10;;;;;;;22.22;52.20;102192.56;5139153;27;20135;-39
2022/07/06 10:53:28;;;;;;;0.10;0.10;;;;;;;22.21;52.38;102190.91;5148956;27;20079;-38
2022/07/06 10:55:55;;;;;;;0.10;0.10;;;;;;;22.23;52.35;102191.44;5139597;27;20519;-39
2022/07/06 10:58:46;;;;;;;0.10;0.10;;;;;;;22.21;52.42;102186.19;5153141;27;20066;-40
2022/07/06 11:01:12;;;;;;;0.10;0.10;;;;;;;22.21;52.72;102182.56;5121625;27;20070;-39
2022/07/06 11:03:48;;;;;;;0.10;0.10;;;;;;;22.20;52.42;102187.28;5140829;27;20483;-39
2022/07/06 11:06:16;;;;;;;0.15;0.10;;;;;;;22.22;52.29;102187.84;5138257;27;20046;-39
2022/07/06 11:09:06;;;;;;;0.10;0.10;;;;;;;22.21;52.39;102180.63;5136983;27;20078;-41
2022/07/06 11:14:14;;;;;;;0.10;0.10;;;;;;;22.21;52.45;102180.63;5174534;27;20121;-40
2022/07/06 11:17:01;;;;;;;0.15;0.15;;;;;;;22.20;52.49;102173.41;5157614;27;20174;-40
2022/07/06 11:19:28;;;;;;;0.10;0.10;;;;;;;22.21;52.46;102177.84;5152175;27;20054;-40
2022/07/06 11:22:09;;;;;;;0.10;0.10;;;;;;;22.21;52.25;102177.84;5118733;27;20075;-41
2022/07/06 11:24:38;;;;;;;0.10;0.10;;;;;;;22.21;52.19;102174.25;5124568;27;20082;-41
2022/07/06 11:27:03;;;;;;;;;;;;;;;22.21;52.32;102174.25;5153072;27;20100;-39
2022/07/06 11:29:29;;;;;;;0.10;0.10;;;;;;;22.21;52.27;102180.63;5152313;27;19938;-40
2022/07/06 11:31:58;;;;;;;0.10;0.10;;;;;;;22.19;52.57;102173.66;5151263;27;20042;-39
2022/07/06 11:34:27;;;;;;;;;;;;;;;22.21;52.39;102171.47;5153227;27;20511;-41